Time;durP1;ratioP1;P1;durP2;ratioP2;P2;SDS_P1;SDS_P2;PMS_P1;PMS_P2;Temp;Humidity;BMP_temperature;BMP_pressure;BME280_temperature;BME280_humidity;BME280_pressure;Samples;Min_cycle;Max_cycle;Signal;HPM_P1;HPM_P2
2021/10/18 00:01:33;;;;;;;5.95;2.90;;;9.90;99.90;;;;;;5072944;28;20173;-94
2021/10/18 00:03:58;;;;;;;9.13;3.10;;;9.90;99.90;;;;;;5072786;28;20184;-95
2021/10/18 00:06:56;;;;;;;8.18;3.60;;;9.90;99.90;;;;;;5073134;28;20170;-95
2021/10/18 00:09:31;;;;;;;5.63;3.40;;;9.90;99.90;;;;;;5072763;28;20173;-95
2021/10/18 00:11:57;;;;;;;7.45;3.60;;;9.90;99.90;;;;;;5073023;28;20173;-94
2021/10/18 00:14:36;;;;;;;11.98;4.13;;;9.80;99.90;;;;;;5072974;28;20622;-94
2021/10/18 00:17:07;;;;;;;7.15;3.20;;;9.80;99.90;;;;;;5072895;28;20288;-95
2021/10/18 00:19:39;;;;;;;7.95;3.45;;;9.80;99.90;;;;;;5072888;28;20221;-95
2021/10/18 00:22:26;;;;;;;8.20;3.80;;;9.80;99.90;;;;;;5072053;28;20183;-96
2021/10/18 00:25:14;;;;;;;6.28;3.17;;;9.80;99.90;;;;;;5073178;28;20638;-95
2021/10/18 00:27:50;;;;;;;9.18;3.65;;;9.80;99.90;;;;;;5072797;28;20228;-94
2021/10/18 00:30:17;;;;;;;4.40;2.97;;;9.80;99.90;;;;;;5072811;28;20646;-95
2021/10/18 00:32:45;;;;;;;4.90;3.10;;;9.80;99.90;;;;;;5072957;28;20177;-94
2021/10/18 00:35:31;;;;;;;4.60;3.17;;;9.80;99.90;;;;;;5073098;28;20170;-95
2021/10/18 00:38:06;;;;;;;8.13;3.30;;;9.80;99.90;;;;;;5072936;28;20209;-93
2021/10/18 00:40:33;;;;;;;10.57;4.25;;;9.80;99.90;;;;;;5072986;28;20177;-94
2021/10/18 00:43:02;;;;;;;7.03;3.47;;;9.80;99.90;;;;;;5072941;28;20169;-94
2021/10/18 00:45:28;;;;;;;7.93;3.25;;;9.80;99.90;;;;;;5073050;28;20619;-95
2021/10/18 00:48:03;;;;;;;6.93;3.63;;;9.80;99.90;;;;;;5072943;28;20285;-95
2021/10/18 00:50:36;;;;;;;9.52;3.05;;;9.70;99.90;;;;;;5073394;28;20185;-95
2021/10/18 00:53:04;;;;;;;5.53;3.53;;;9.80;99.90;;;;;;5072748;28;20242;-95
2021/10/18 00:56:05;;;;;;;6.15;3.33;;;9.70;99.90;;;;;;5072831;28;20192;-95
2021/10/18 00:58:33;;;;;;;10.93;3.60;;;9.70;99.90;;;;;;5072542;28;20209;-95
2021/10/18 01:01:15;;;;;;;6.72;3.55;;;9.70;99.90;;;;;;5072987;28;20165;-95
2021/10/18 01:03:42;;;;;;;6.80;2.90;;;9.70;99.90;;;;;;5072558;28;20265;-94
2021/10/18 01:06:19;;;;;;;7.28;3.10;;;9.70;99.90;;;;;;5072505;28;20268;-95
2021/10/18 01:08:46;;;;;;;9.82;3.47;;;9.70;99.90;;;;;;5072262;28;20292;-96
2021/10/18 01:11:19;;;;;;;5.47;3.53;;;9.70;99.90;;;;;;5072232;28;20174;-95
2021/10/18 01:13:56;;;;;;;5.78;3.00;;;9.70;99.90;;;;;;5072364;28;20170;-94
2021/10/18 01:16:36;;;;;;;7.40;3.30;;;9.70;99.90;;;;;;5077380;28;20528;-95
2021/10/18 01:19:15;;;;;;;7.22;3.33;;;9.70;99.90;;;;;;5071403;28;20270;-96
2021/10/18 01:21:48;;;;;;;6.30;3.17;;;9.70;99.90;;;;;;5075808;28;20657;-93
2021/10/18 01:24:16;;;;;;;7.78;3.05;;;9.70;99.90;;;;;;5076018;28;20174;-94
2021/10/18 01:26:43;;;;;;;8.23;3.42;;;9.70;99.90;;;;;;5075817;28;20223;-94
2021/10/18 01:29:15;;;;;;;5.93;3.05;;;9.70;99.90;;;;;;5075836;28;20165;-94
2021/10/18 01:31:47;;;;;;;9.77;3.30;;;9.70;99.90;;;;;;5075680;28;20169;-95
2021/10/18 01:34:34;;;;;;;5.10;2.43;;;9.70;99.90;;;;;;5075868;28;20252;-95
2021/10/18 01:37:08;;;;;;;5.75;2.75;;;9.70;99.90;;;;;;5075391;28;20208;-94
2021/10/18 01:39:44;;;;;;;8.27;3.17;;;9.70;99.90;;;;;;5075692;28;20169;-95
2021/10/18 01:42:14;;;;;;;7.90;2.65;;;9.70;99.90;;;;;;5075495;28;20173;-94
2021/10/18 01:44:48;;;;;;;11.77;2.92;;;9.70;99.90;;;;;;5075570;28;20173;-95
2021/10/18 01:47:27;;;;;;;7.07;2.90;;;9.70;99.90;;;;;;5075164;28;20204;-95
2021/10/18 01:49:54;;;;;;;5.60;3.20;;;9.70;99.90;;;;;;5075333;28;20690;-95
2021/10/18 01:52:33;;;;;;;5.50;3.17;;;9.70;99.90;;;;;;5075347;28;20643;-94
2021/10/18 01:55:09;;;;;;;5.97;2.70;;;9.70;99.90;;;;;;5075106;28;20176;-93
2021/10/18 01:57:42;;;;;;;10.95;3.10;;;9.70;99.90;;;;;;5075274;28;20211;-93
2021/10/18 02:00:15;;;;;;;9.10;2.88;;;9.70;99.90;;;;;;5075233;28;20162;-95
2021/10/18 02:02:50;;;;;;;10.57;3.00;;;9.70;99.90;;;;;;5075102;28;20166;-93
2021/10/18 02:05:17;;;;;;;5.28;2.85;;;9.60;99.90;;;;;;5075172;28;20260;-94
2021/10/18 02:07:54;;;;;;;7.90;3.28;;;9.60;99.90;;;;;;5074946;28;20667;-95
2021/10/18 02:10:21;;;;;;;4.97;2.80;;;9.60;99.90;;;;;;5074909;28;20176;-96
2021/10/18 02:12:57;;;;;;;5.57;2.80;;;9.60;99.90;;;;;;5074877;28;20192;-94
2021/10/18 02:15:36;;;;;;;8.85;2.90;;;9.60;99.90;;;;;;5074778;28;20169;-95
2021/10/18 02:18:03;;;;;;;7.95;2.72;;;9.60;99.90;;;;;;5074370;28;20232;-96
2021/10/18 02:20:38;;;;;;;9.23;3.17;;;9.60;99.90;;;;;;5074739;28;20169;-95
2021/10/18 02:23:04;;;;;;;7.50;2.90;;;9.50;99.90;;;;;;5074875;28;20165;-95
2021/10/18 02:25:47;;;;;;;5.78;2.55;;;9.50;99.90;;;;;;5074552;28;20169;-95
2021/10/18 02:28:14;;;;;;;6.50;2.65;;;9.50;99.90;;;;;;5074724;28;20209;-95
2021/10/18 02:30:56;;;;;;;6.60;2.92;;;9.50;99.90;;;;;;5074691;28;20272;-95
2021/10/18 02:33:24;;;;;;;8.20;3.33;;;9.40;99.90;;;;;;5074854;28;20171;-93
2021/10/18 02:36:02;;;;;;;10.35;3.00;;;9.40;99.90;;;;;;5074530;28;20238;-95
2021/10/18 02:38:31;;;;;;;8.65;2.97;;;9.40;99.90;;;;;;5372301;22;20263;-94
2021/10/18 02:41:01;;;;;;;5.47;3.03;;;9.30;99.90;;;;;;5074039;28;20194;-95
2021/10/18 02:43:27;;;;;;;6.07;3.22;;;9.30;99.90;;;;;;5076473;28;20174;-94
2021/10/18 02:45:54;;;;;;;6.82;3.28;;;9.30;99.90;;;;;;5077461;28;20162;-94
2021/10/18 02:48:21;;;;;;;7.55;2.60;;;9.20;99.90;;;;;;5078374;28;20204;-95
2021/10/18 02:50:47;;;;;;;4.67;2.50;;;9.20;99.90;;;;;;5077235;28;20209;-96
2021/10/18 02:53:15;;;;;;;6.53;2.90;;;9.20;99.90;;;;;;5081606;28;20260;-95
2021/10/18 02:55:49;;;;;;;5.97;3.10;;;9.10;99.90;;;;;;5089256;28;20200;-95
2021/10/18 02:58:15;;;;;;;5.43;2.65;;;9.10;99.90;;;;;;5083711;28;20228;-94
2021/10/18 03:00:43;;;;;;;8.25;3.33;;;9.10;99.90;;;;;;5089347;28;20524;-95
2021/10/18 03:03:10;;;;;;;5.47;2.95;;;9.10;99.90;;;;;;5088516;28;20235;-94
2021/10/18 03:05:36;;;;;;;7.03;2.92;;;9.10;99.90;;;;;;5070560;28;20182;-93
2021/10/18 03:08:03;;;;;;;4.53;2.70;;;9.00;99.90;;;;;;5086805;28;20207;-95
2021/10/18 03:10:31;;;;;;;6.30;2.93;;;9.00;99.90;;;;;;5087830;28;20173;-94
2021/10/18 03:12:59;;;;;;;6.50;3.17;;;9.00;99.90;;;;;;5087135;28;20501;-95
2021/10/18 03:15:29;;;;;;;7.63;2.87;;;8.90;99.90;;;;;;5070321;28;20228;-95
2021/10/18 03:17:56;;;;;;;6.83;3.30;;;9.00;99.90;;;;;;5087059;28;20209;-94
2021/10/18 03:20:50;;;;;;;8.10;3.10;;;9.00;99.90;;;;;;5087652;28;20184;-96
2021/10/18 03:23:18;;;;;;;5.30;2.97;;;9.00;99.90;;;;;;5087698;28;20169;-95
2021/10/18 03:25:44;;;;;;;7.87;3.53;;;9.00;99.90;;;;;;5159605;22;20233;-95
2021/10/18 03:28:12;;;;;;;4.80;2.80;;;9.00;99.90;;;;;;5067319;28;20750;-94
2021/10/18 03:30:45;;;;;;;4.57;2.93;;;8.90;99.90;;;;;;5065451;28;20185;-95
2021/10/18 03:33:12;;;;;;;7.03;2.70;;;8.90;99.90;;;;;;5050244;28;20182;-94
2021/10/18 03:35:39;;;;;;;6.63;2.90;;;8.90;99.90;;;;;;5069480;28;20185;-94
2021/10/18 03:38:06;;;;;;;9.27;3.13;;;8.90;99.90;;;;;;5071035;28;20300;-94
2021/10/18 03:40:34;;;;;;;5.40;3.00;;;8.80;99.90;;;;;;5071866;28;20180;-95
2021/10/18 03:43:01;;;;;;;6.17;2.57;;;8.80;99.90;;;;;;5071463;28;20178;-94
2021/10/18 03:45:27;;;;;;;7.73;2.70;;;8.80;99.90;;;;;;5084862;28;20184;-95
2021/10/18 03:47:53;;;;;;;7.43;2.83;;;8.80;99.90;;;;;;5090737;28;20181;-96
2021/10/18 03:50:21;;;;;;;5.70;2.93;;;8.80;99.90;;;;;;5088434;28;20173;-95
2021/10/18 03:52:51;;;;;;;7.40;2.90;;;8.70;99.90;;;;;;5074154;28;20197;-94
2021/10/18 03:56:04;;;;;;;5.17;2.67;;;8.70;99.90;;;;;;5090728;28;20185;-94
2021/10/18 03:58:31;;;;;;;7.07;2.93;;;8.70;99.90;;;;;;5088603;28;20197;-96
2021/10/18 04:01:17;;;;;;;6.50;2.97;;;8.70;99.90;;;;;;5072194;28;20158;-95
2021/10/18 04:03:43;;;;;;;5.20;2.83;;;8.70;99.90;;;;;;5148978;22;20355;-96
2021/10/18 04:06:12;;;;;;;8.47;2.80;;;8.70;99.90;;;;;;5082529;28;20165;-95
2021/10/18 04:08:41;;;;;;;8.73;2.80;;;8.70;99.90;;;;;;5080929;28;20220;-95
2021/10/18 04:11:10;;;;;;;5.60;2.70;;;8.70;99.90;;;;;;5062068;28;20216;-96
2021/10/18 04:13:40;;;;;;;8.67;3.40;;;8.70;99.90;;;;;;5061567;28;20170;-95
2021/10/18 04:16:10;;;;;;;6.27;3.07;;;8.70;99.90;;;;;;5061911;28;20260;-96
2021/10/18 04:18:36;;;;;;;6.63;3.00;;;8.80;99.90;;;;;;5060292;28;20202;-96
2021/10/18 04:21:05;;;;;;;6.47;2.93;;;8.80;99.90;;;;;;5058147;28;20170;-96
2021/10/18 04:23:37;;;;;;;5.80;2.63;;;8.80;99.90;;;;;;5057716;28;20174;-96
2021/10/18 04:26:03;;;;;;;7.03;3.17;;;8.80;99.90;;;;;;5057633;28;20177;-95
2021/10/18 04:28:30;;;;;;;9.03;3.13;;;8.80;99.90;;;;;;5058141;28;20198;-95
2021/10/18 04:30:57;;;;;;;6.70;3.40;;;8.80;99.90;;;;;;5058567;28;20185;-96
2021/10/18 04:33:24;;;;;;;8.23;3.37;;;8.80;99.90;;;;;;5059200;28;20174;-96
2021/10/18 04:35:50;;;;;;;8.37;2.70;;;8.80;99.90;;;;;;5058953;28;20589;-95
2021/10/18 04:38:18;;;;;;;3.93;2.97;;;8.80;99.90;;;;;;5058695;28;20565;-96
2021/10/18 04:40:46;;;;;;;4.80;2.37;;;8.80;99.90;;;;;;5058909;28;20627;-95
2021/10/18 04:43:13;;;;;;;4.33;2.63;;;8.90;99.90;;;;;;5060900;28;20224;-96
2021/10/18 04:45:39;;;;;;;7.83;3.10;;;8.80;99.90;;;;;;5058806;28;20222;-94
2021/10/18 04:48:05;;;;;;;6.27;3.10;;;8.90;99.90;;;;;;5058396;28;20221;-95
2021/10/18 04:50:32;;;;;;;5.37;2.70;;;8.90;99.90;;;;;;5061215;28;20631;-96
2021/10/18 04:53:00;;;;;;;6.80;3.20;;;8.90;99.90;;;;;;5061696;28;20177;-95
2021/10/18 04:55:33;;;;;;;5.80;3.03;;;8.90;99.90;;;;;;5062336;28;20246;-95
2021/10/18 04:58:07;;;;;;;9.43;3.23;;;8.90;99.90;;;;;;5060570;28;20248;-96
2021/10/18 05:00:40;;;;;;;5.00;2.50;;;8.90;99.90;;;;;;5061504;28;20174;-96
2021/10/18 05:03:08;;;;;;;6.30;2.63;;;8.90;99.90;;;;;;5066964;28;20181;-96
2021/10/18 05:05:35;;;;;;;6.93;2.63;;;8.90;99.90;;;;;;5065351;28;20290;-94
2021/10/18 05:08:06;;;;;;;6.77;2.77;;;8.90;99.90;;;;;;5063868;28;20227;-95
2021/10/18 05:10:35;;;;;;;6.43;2.77;;;8.90;99.90;;;;;;5063474;28;20216;-95
2021/10/18 05:13:02;;;;;;;7.40;2.90;;;8.90;99.90;;;;;;5063272;28;20174;-96
2021/10/18 05:15:37;;;;;;;7.33;3.13;;;8.90;99.90;;;;;;5063999;28;20178;-95
2021/10/18 05:18:05;;;;;;;7.33;3.10;;;9.00;99.90;;;;;;5062445;28;20264;-96
2021/10/18 05:20:54;;;;;;;7.27;2.97;;;8.90;99.90;;;;;;5064880;28;20230;-94
2021/10/18 05:23:46;;;;;;;6.80;3.00;;;8.90;99.90;;;;;;5063779;28;20235;-96
2021/10/18 05:26:15;;;;;;;5.93;2.90;;;9.00;99.90;;;;;;5065308;28;20184;-95
2021/10/18 05:28:46;;;;;;;4.40;3.10;;;9.00;99.90;;;;;;5065684;28;20204;-95
2021/10/18 05:31:13;;;;;;;7.30;3.47;;;9.00;99.90;;;;;;5062385;28;20177;-96
2021/10/18 05:33:56;;;;;;;6.30;3.20;;;8.90;99.90;;;;;;5061988;28;20178;-95
2021/10/18 05:36:35;;;;;;;6.67;3.23;;;9.00;99.90;;;;;;5063097;28;20169;-95
2021/10/18 05:39:01;;;;;;;5.87;2.87;;;9.00;99.90;;;;;;5063734;28;20216;-95
2021/10/18 05:41:37;;;;;;;5.60;2.90;;;9.00;99.90;;;;;;5061459;28;20170;-95
2021/10/18 05:44:06;;;;;;;5.40;2.87;;;9.00;99.90;;;;;;5062430;28;20166;-95
2021/10/18 05:46:35;;;;;;;6.10;3.00;;;9.00;99.90;;;;;;5063212;28;20162;-95
2021/10/18 05:49:11;;;;;;;6.77;2.93;;;9.00;99.90;;;;;;5061621;28;20604;-96
2021/10/18 05:51:44;;;;;;;5.47;2.57;;;9.10;99.90;;;;;;5060923;28;20204;-95
2021/10/18 05:54:18;;;;;;;8.47;3.00;;;9.10;99.90;;;;;;5063831;28;20166;-95
2021/10/18 05:56:52;;;;;;;6.83;2.70;;;9.10;99.90;;;;;;5060276;28;20196;-95
2021/10/18 05:59:19;;;;;;;4.47;2.67;;;9.10;99.90;;;;;;5061370;28;20158;-95
2021/10/18 06:02:16;;;;;;;4.77;2.80;;;9.10;99.90;;;;;;5059030;28;20257;-94
2021/10/18 06:04:46;;;;;;;7.23;3.17;;;9.10;99.90;;;;;;5061723;28;20221;-95
2021/10/18 06:07:15;;;;;;;5.93;3.30;;;9.10;99.90;;;;;;5062274;28;20251;-94
2021/10/18 06:09:41;;;;;;;10.93;3.00;;;9.10;99.90;;;;;;5062813;28;20237;-95
2021/10/18 06:12:08;;;;;;;6.67;2.93;;;9.20;99.90;;;;;;5063015;28;20201;-94
2021/10/18 06:14:40;;;;;;;6.23;3.07;;;9.20;99.90;;;;;;5063592;28;20174;-94
2021/10/18 06:17:16;;;;;;;7.03;3.20;;;9.20;99.90;;;;;;5062739;28;20217;-95
2021/10/18 06:19:43;;;;;;;3.17;2.67;;;9.20;99.90;;;;;;5062511;28;20197;-96
2021/10/18 06:22:11;;;;;;;9.23;2.90;;;9.20;99.90;;;;;;5064072;28;20202;-96
2021/10/18 06:24:38;;;;;;;5.67;2.93;;;9.20;99.90;;;;;;5063672;28;20216;-96
2021/10/18 06:27:13;;;;;;;7.90;2.70;;;9.20;99.90;;;;;;5064182;28;20212;-95
2021/10/18 06:29:42;;;;;;;5.43;2.83;;;9.20;99.90;;;;;;5064195;28;20344;-96
2021/10/18 06:32:17;;;;;;;4.50;2.83;;;9.30;99.90;;;;;;5062585;28;20180;-95
2021/10/18 06:34:57;;;;;;;6.95;2.50;;;9.30;99.90;;;;;;5062058;28;20241;-95
2021/10/18 06:37:23;;;;;;;6.88;2.75;;;9.30;99.90;;;;;;5062726;28;20367;-94
2021/10/18 06:39:52;;;;;;;8.00;2.70;;;9.30;99.90;;;;;;5061936;28;20240;-95
2021/10/18 06:42:23;;;;;;;6.50;2.93;;;9.40;99.90;;;;;;5062296;28;20178;-94
2021/10/18 06:45:01;;;;;;;7.63;3.77;;;9.40;99.90;;;;;;5062375;28;20623;-95
2021/10/18 06:47:29;;;;;;;4.87;2.83;;;9.40;99.90;;;;;;5063581;28;20198;-96
2021/10/18 06:50:03;;;;;;;6.03;2.92;;;9.50;99.90;;;;;;5061972;28;20205;-96
2021/10/18 06:52:34;;;;;;;6.60;2.70;;;9.50;99.90;;;;;;5063397;28;20652;-95
2021/10/18 06:55:04;;;;;;;8.07;2.73;;;9.50;99.90;;;;;;5063098;28;20185;-96
2021/10/18 06:57:32;;;;;;;8.87;2.80;;;9.50;99.90;;;;;;5063274;28;20205;-95
2021/10/18 06:59:58;;;;;;;4.47;2.60;;;9.50;99.90;;;;;;5062969;28;20194;-94
2021/10/18 07:02:26;;;;;;;7.80;2.83;;;9.50;99.90;;;;;;5061944;28;20175;-96
2021/10/18 07:04:54;;;;;;;4.97;2.78;;;9.60;99.90;;;;;;5060199;28;20225;-95
2021/10/18 07:07:21;;;;;;;5.67;2.60;;;9.60;99.90;;;;;;5061600;28;20198;-96
2021/10/18 07:09:47;;;;;;;5.33;2.63;;;9.60;99.90;;;;;;5061829;28;20223;-96
2021/10/18 07:12:13;;;;;;;7.00;2.40;;;9.60;99.90;;;;;;5055915;28;20174;-95
2021/10/18 07:14:40;;;;;;;4.13;2.63;;;9.50;99.90;;;;;;5058417;28;20268;-95
2021/10/18 07:17:11;;;;;;;5.60;2.90;;;9.50;99.90;;;;;;5058219;28;20217;-95
2021/10/18 07:19:43;;;;;;;5.60;2.50;;;9.50;99.90;;;;;;5059558;28;20260;-95
2021/10/18 07:25:19;;;;;;;5.80;2.53;;;9.40;99.90;;;;;;5060765;28;20201;-95
2021/10/18 07:27:47;;;;;;;5.30;2.33;;;9.40;99.90;;;;;;5060806;28;20207;-95
2021/10/18 07:30:13;;;;;;;4.20;2.33;;;9.40;99.90;;;;;;5063003;28;20265;-95
2021/10/18 07:32:43;;;;;;;8.00;2.70;;;9.30;99.90;;;;;;5061571;28;20182;-95
2021/10/18 07:35:11;;;;;;;4.90;2.50;;;9.30;99.90;;;;;;5058558;28;20197;-96
2021/10/18 07:37:37;;;;;;;6.40;3.17;;;9.40;99.90;;;;;;5054376;28;20233;-95
2021/10/18 07:40:05;;;;;;;5.67;2.77;;;9.30;99.90;;;;;;5055144;28;20578;-96
2021/10/18 07:42:41;;;;;;;5.00;2.53;;;9.30;99.90;;;;;;5055847;28;20178;-96
2021/10/18 07:45:30;;;;;;;5.50;2.77;;;9.40;99.90;;;;;;5053135;28;20219;-96
2021/10/18 07:48:13;;;;;;;3.53;2.43;;;9.40;99.90;;;;;;5055462;28;20202;-96
2021/10/18 07:50:42;;;;;;;5.80;2.80;;;9.60;99.90;;;;;;5054979;28;20200;-96
2021/10/18 07:53:08;;;;;;;8.20;2.80;;;9.70;99.90;;;;;;5055725;28;20224;-95
2021/10/18 07:55:37;;;;;;;6.50;2.60;;;9.70;99.90;;;;;;5055073;28;20189;-96
2021/10/18 07:58:16;;;;;;;6.97;2.60;;;9.90;99.90;;;;;;5055692;28;20213;-95
2021/10/18 08:00:43;;;;;;;6.10;2.47;;;9.90;99.90;;;;;;5055921;28;20188;-95
2021/10/18 08:03:10;;;;;;;7.13;2.30;;;10.00;99.90;;;;;;5056000;28;20265;-96
2021/10/18 08:05:38;;;;;;;3.55;2.65;;;10.10;99.90;;;;;;5055867;28;20221;-96
2021/10/18 08:08:05;;;;;;;4.10;2.50;;;10.20;99.90;;;;;;5056639;28;20205;-96
2021/10/18 08:10:31;;;;;;;3.97;2.50;;;10.20;99.90;;;;;;5055757;28;20170;-95
2021/10/18 08:13:03;;;;;;;7.63;2.70;;;10.30;99.90;;;;;;5057080;28;20628;-96
2021/10/18 08:18:23;;;;;;;4.33;2.53;;;10.40;99.90;;;;;;5056585;28;20677;-96
2021/10/18 08:20:51;;;;;;;3.67;2.38;;;10.50;99.90;;;;;;5054441;28;20162;-96
2021/10/18 08:23:18;;;;;;;7.47;2.70;;;10.50;99.90;;;;;;5054478;28;20639;-96
2021/10/18 08:25:52;;;;;;;4.95;2.55;;;10.50;99.90;;;;;;5059360;28;20627;-96
2021/10/18 08:28:20;;;;;;;5.43;2.40;;;10.60;99.90;;;;;;5059692;28;20197;-95
2021/10/18 08:30:58;;;;;;;5.97;2.15;;;10.70;99.90;;;;;;5059004;28;20177;-95
2021/10/18 08:33:27;;;;;;;5.20;2.35;;;10.80;99.90;;;;;;5058515;28;20260;-96
2021/10/18 08:35:54;;;;;;;5.97;2.20;;;10.90;99.90;;;;;;5058300;28;20169;-96
2021/10/18 08:41:21;;;;;;;5.63;2.78;;;11.00;99.90;;;;;;5060288;28;20182;-95
2021/10/18 08:46:26;;;;;;;5.45;2.33;;;11.20;99.90;;;;;;5060145;28;20163;-96
2021/10/18 08:48:58;;;;;;;7.38;2.30;;;11.30;99.90;;;;;;5058738;28;20233;-96
2021/10/18 08:51:27;;;;;;;5.70;2.40;;;11.30;99.90;;;;;;5058789;28;20185;-94
2021/10/18 08:53:53;;;;;;;6.53;2.30;;;11.30;99.90;;;;;;5059324;28;20178;-96
2021/10/18 08:56:25;;;;;;;4.57;2.30;;;11.40;99.90;;;;;;5058766;28;20248;-95
2021/10/18 08:58:51;;;;;;;5.40;2.25;;;11.50;99.90;;;;;;5058104;28;20233;-95
2021/10/18 09:02:00;;;;;;;4.05;1.83;;;11.60;99.90;;;;;;5058533;28;20244;-96
2021/10/18 09:04:35;;;;;;;8.07;2.50;;;11.60;99.90;;;;;;5059805;28;20698;-96
2021/10/18 09:07:15;;;;;;;7.00;2.15;;;11.70;99.90;;;;;;5065570;28;20284;-93
2021/10/18 09:09:50;;;;;;;4.88;2.00;;;11.80;99.90;;;;;;5065613;28;20236;-94
2021/10/18 09:12:45;;;;;;;4.03;2.22;;;12.00;99.90;;;;;;5063782;28;20176;-96
2021/10/18 09:15:39;;;;;;;3.35;1.90;;;12.10;99.90;;;;;;5062803;28;20189;-95
2021/10/18 09:18:18;;;;;;;4.25;1.90;;;12.10;99.90;;;;;;5062789;28;20616;-94
2021/10/18 09:20:49;;;;;;;5.10;2.30;;;12.20;99.90;;;;;;5061906;28;20166;-95
2021/10/18 09:23:24;;;;;;;4.90;1.85;;;12.20;99.90;;;;;;5063589;28;20219;-95
2021/10/18 09:25:56;;;;;;;4.97;1.90;;;12.30;99.90;;;;;;5064271;28;20216;-94
2021/10/18 09:28:27;;;;;;;4.70;2.30;;;12.30;99.90;;;;;;5062306;28;20259;-96
2021/10/18 09:30:55;;;;;;;4.75;1.75;;;12.40;99.90;;;;;;5062398;28;20189;-95
2021/10/18 09:33:26;;;;;;;4.78;1.90;;;12.50;99.90;;;;;;5062366;28;20185;-93
2021/10/18 09:36:05;;;;;;;4.45;1.92;;;12.60;99.90;;;;;;5062723;28;20166;-95
2021/10/18 09:38:41;;;;;;;3.20;2.00;;;12.60;99.90;;;;;;5062806;28;20206;-94
2021/10/18 09:41:08;;;;;;;5.10;2.13;;;12.70;99.90;;;;;;5062143;28;20237;-95
2021/10/18 09:43:39;;;;;;;6.32;1.98;;;12.80;99.90;;;;;;5063064;28;20154;-94
2021/10/18 10:51:53;;;;;;;3.97;2.03;;;13.70;99.90;;;;;;5040799;28;20258;-95
2021/10/18 10:54:50;;;;;;;3.75;1.70;;;13.80;99.90;;;;;;5023639;28;20182;-96
2021/10/18 10:57:35;;;;;;;5.00;1.77;;;13.80;99.90;;;;;;5039131;28;20206;-95
2021/10/18 11:00:01;;;;;;;4.90;2.15;;;13.80;99.90;;;;;;5023194;28;20175;-96
2021/10/18 11:02:36;;;;;;;3.78;1.67;;;13.80;99.90;;;;;;5024169;28;20375;-95
2021/10/18 11:05:03;;;;;;;3.75;2.00;;;13.80;99.90;;;;;;5031608;28;20261;-94
2021/10/18 11:07:38;;;;;;;4.22;2.00;;;13.80;99.90;;;;;;5057316;28;20205;-95
2021/10/18 11:10:07;;;;;;;9.13;1.80;;;13.80;99.90;;;;;;5040156;28;20181;-94
2021/10/18 11:12:42;;;;;;;4.93;1.70;;;13.80;99.90;;;;;;5056947;28;20220;-94
2021/10/18 11:15:21;;;;;;;4.00;1.73;;;13.90;99.90;;;;;;5058686;28;20178;-95
2021/10/18 11:18:03;;;;;;;3.75;1.80;;;13.90;99.90;;;;;;5057231;28;20218;-96
2021/10/18 11:20:30;;;;;;;5.05;1.90;;;13.90;99.90;;;;;;5042304;28;20173;-95
2021/10/18 11:23:04;;;;;;;5.05;1.92;;;14.00;99.90;;;;;;5058702;28;20166;-94
2021/10/18 11:25:33;;;;;;;6.18;1.88;;;14.10;99.90;;;;;;5055383;28;20246;-95
2021/10/18 11:28:07;;;;;;;2.85;1.83;;;14.10;99.90;;;;;;5056366;28;20309;-94
2021/10/18 11:30:37;;;;;;;3.35;1.70;;;14.10;99.90;;;;;;5057942;28;20174;-96
2021/10/18 11:33:21;;;;;;;2.28;1.50;;;14.20;99.90;;;;;;5057168;28;20166;-95
2021/10/18 11:35:47;;;;;;;2.67;1.60;;;14.30;99.90;;;;;;5053987;28;20174;-95
2021/10/18 11:38:16;;;;;;;3.22;1.75;;;14.30;99.90;;;;;;5054725;28;20309;-95
2021/10/18 11:40:57;;;;;;;3.85;1.75;;;14.30;99.90;;;;;;5054749;28;20167;-95
2021/10/18 11:43:33;;;;;;;3.22;1.52;;;14.30;99.90;;;;;;5054203;28;20174;-94
2021/10/18 11:46:05;;;;;;;3.40;1.67;;;14.30;99.90;;;;;;5054670;28;20659;-94
2021/10/18 11:48:46;;;;;;;2.67;1.52;;;14.30;99.90;;;;;;5056182;28;20565;-95
2021/10/18 11:51:12;;;;;;;3.25;1.70;;;14.20;99.90;;;;;;5056439;28;20170;-95
2021/10/18 11:53:43;;;;;;;7.88;1.70;;;14.20;99.90;;;;;;5056328;28;20246;-95
2021/10/18 11:56:25;;;;;;;4.22;1.70;;;14.30;99.90;;;;;;5057882;28;20295;-94
2021/10/18 11:59:12;;;;;;;3.33;1.60;;;14.30;99.90;;;;;;5056507;28;20293;-94
2021/10/18 12:01:38;;;;;;;4.97;1.80;;;14.20;99.90;;;;;;5039040;28;20178;-95
2021/10/18 12:04:09;;;;;;;3.85;1.58;;;14.20;99.90;;;;;;5053949;28;20253;-96
2021/10/18 12:06:54;;;;;;;5.88;1.80;;;14.10;99.90;;;;;;5054692;28;20171;-95
2021/10/18 12:09:31;;;;;;;3.42;1.67;;;14.10;99.90;;;;;;5055199;28;20245;-93
2021/10/18 12:12:12;;;;;;;3.22;1.30;;;14.10;99.90;;;;;;5055545;28;20197;-95
2021/10/18 12:14:59;;;;;;;6.13;1.90;;;14.00;99.90;;;;;;5055453;28;20651;-95
2021/10/18 12:17:25;;;;;;;3.78;1.75;;;13.90;99.90;;;;;;5055318;28;20218;-95
2021/10/18 12:19:55;;;;;;;5.82;1.75;;;14.00;99.90;;;;;;5056763;28;20268;-94
2021/10/18 12:22:29;;;;;;;2.50;1.30;;;14.00;99.90;;;;;;5056467;28;20181;-94
2021/10/18 12:25:05;;;;;;;3.00;1.67;;;14.00;99.90;;;;;;5055178;28;20642;-95
2021/10/18 12:27:36;;;;;;;3.83;1.70;;;14.00;99.90;;;;;;5055469;28;20270;-95
2021/10/18 12:30:38;;;;;;;3.83;1.60;;;14.00;99.90;;;;;;5056108;28;20182;-95
2021/10/18 12:33:17;;;;;;;3.25;1.50;;;14.10;99.90;;;;;;5056349;28;20174;-96
2021/10/18 12:36:03;;;;;;;4.07;1.50;;;14.10;99.90;;;;;;5055362;28;20762;-95
2021/10/18 12:38:30;;;;;;;8.88;1.98;;;14.20;99.90;;;;;;5053869;28;20209;-93
2021/10/18 12:41:12;;;;;;;3.05;1.50;;;14.20;99.90;;;;;;5055816;28;20170;-95
2021/10/18 12:43:39;;;;;;;5.35;1.80;;;14.30;99.90;;;;;;5053979;28;20182;-94
2021/10/18 12:46:37;;;;;;;3.00;1.40;;;14.40;99.90;;;;;;5053921;28;20183;-94
2021/10/18 12:49:09;;;;;;;3.67;1.90;;;14.30;99.90;;;;;;4979554;28;20184;-95
2021/10/18 12:51:42;;;;;;;3.10;1.50;;;14.30;99.90;;;;;;4980930;28;20234;-94
2021/10/18 12:54:44;;;;;;;4.60;1.60;;;14.30;99.90;;;;;;4980009;28;20188;-95
2021/10/18 12:57:14;;;;;;;3.65;1.83;;;14.30;99.90;;;;;;4921042;29;20296;-94
2021/10/18 13:00:31;;;;;;;2.20;1.48;;;14.30;99.90;;;;;;4943580;28;20180;-95
2021/10/18 13:03:35;;;;;;;4.30;1.55;;;14.30;99.90;;;;;;4977618;28;20196;-95
2021/10/18 13:06:01;;;;;;;2.53;1.63;;;14.30;99.90;;;;;;4987879;28;20188;-95
2021/10/18 13:08:33;;;;;;;2.85;1.60;;;14.30;99.90;;;;;;5055554;28;20628;-95
2021/10/18 13:11:03;;;;;;;1.98;1.50;;;14.50;99.90;;;;;;5056169;28;20207;-94
2021/10/18 13:13:30;;;;;;;3.03;1.50;;;14.60;99.90;;;;;;5057008;28;20175;-95
2021/10/18 13:16:00;;;;;;;2.40;1.48;;;14.70;99.90;;;;;;5055479;28;20205;-95
2021/10/18 13:18:34;;;;;;;2.58;1.73;;;14.70;99.90;;;;;;5059929;28;20206;-95
2021/10/18 13:21:08;;;;;;;4.25;1.90;;;14.70;99.90;;;;;;5060236;28;20642;-94
2021/10/18 13:23:37;;;;;;;3.88;1.90;;;14.70;99.90;;;;;;5060708;28;20182;-93
2021/10/18 13:26:03;;;;;;;3.92;1.75;;;14.60;99.90;;;;;;5061010;28;20191;-94
2021/10/18 13:28:29;;;;;;;4.43;1.80;;;14.60;99.90;;;;;;5061587;28;20279;-95
2021/10/18 13:30:58;;;;;;;3.88;1.70;;;14.60;99.90;;;;;;5062671;28;20182;-95
2021/10/18 13:33:28;;;;;;;5.65;2.00;;;14.50;99.90;;;;;;5062760;28;20237;-94
2021/10/18 13:35:53;;;;;;;4.95;1.95;;;14.50;99.90;;;;;;5062207;28;20182;-95
2021/10/18 13:38:19;;;;;;;7.60;1.80;;;14.50;99.90;;;;;;5063861;28;20198;-94
2021/10/18 13:40:51;;;;;;;2.75;1.58;;;14.50;99.90;;;;;;5063111;28;20272;-95
2021/10/18 13:43:26;;;;;;;4.03;1.80;;;14.50;99.90;;;;;;5063222;28;20262;-94
2021/10/18 13:45:52;;;;;;;3.65;1.90;;;14.50;99.90;;;;;;5062935;28;20224;-94
2021/10/18 13:48:22;;;;;;;3.10;1.73;;;14.50;99.90;;;;;;5064039;28;20202;-95
2021/10/18 13:50:53;;;;;;;11.02;1.80;;;14.50;99.90;;;;;;5063000;28;20178;-94
2021/10/18 13:53:21;;;;;;;3.83;2.28;;;14.40;99.90;;;;;;5062988;28;20182;-93
2021/10/18 13:55:49;;;;;;;2.72;1.75;;;14.30;99.90;;;;;;5062615;28;20186;-93
2021/10/18 13:58:19;;;;;;;3.83;2.17;;;14.30;99.90;;;;;;5062548;28;20198;-95
2021/10/18 14:00:49;;;;;;;3.28;1.73;;;14.30;99.90;;;;;;5061389;28;20198;-95
2021/10/18 14:03:16;;;;;;;3.22;1.90;;;14.40;99.90;;;;;;5062188;28;20175;-94
2021/10/18 14:05:58;;;;;;;4.05;1.90;;;14.40;99.90;;;;;;5062005;28;20222;-94
2021/10/18 14:08:27;;;;;;;3.63;1.95;;;14.40;99.90;;;;;;5045634;28;20229;-94
2021/10/18 14:10:54;;;;;;;5.28;2.10;;;14.40;99.90;;;;;;5062095;28;20266;-94
2021/10/18 14:13:39;;;;;;;8.88;2.15;;;14.40;99.90;;;;;;5062144;28;20210;-96
2021/10/18 14:16:09;;;;;;;9.30;1.80;;;14.40;99.90;;;;;;5062025;28;20215;-93
2021/10/18 14:18:35;;;;;;;3.97;1.88;;;14.40;99.90;;;;;;5062138;28;20210;-93
2021/10/18 14:21:05;;;;;;;2.85;1.73;;;14.30;99.90;;;;;;5062273;28;20174;-95
2021/10/18 14:23:34;;;;;;;5.22;2.22;;;14.30;99.90;;;;;;5061442;28;20174;-94
2021/10/18 14:26:02;;;;;;;5.18;2.10;;;14.30;99.90;;;;;;5060859;28;20248;-94
2021/10/18 14:28:30;;;;;;;6.00;1.98;;;14.20;99.90;;;;;;5059203;28;20217;-94
2021/10/18 14:30:58;;;;;;;5.40;2.10;;;14.20;99.90;;;;;;5061007;28;20189;-94
2021/10/18 14:33:30;;;;;;;6.78;2.30;;;14.10;99.90;;;;;;5060907;28;20266;-93
2021/10/18 14:35:58;;;;;;;5.07;2.03;;;14.10;99.90;;;;;;5060123;28;20179;-96
2021/10/18 14:38:26;;;;;;;5.10;1.98;;;14.00;99.90;;;;;;5059745;28;20684;-94